LFPM 191800Z AUTO 36008KT CAVOK 24/16 Q1020

Nombre de NOTAM : 2    
LFFA-E1379/22 
Q) LFFF/QSTLC/IV/NBO/ A/000/999/4849N00237E005
A) LFPL  LOGNES EMERAINVILLE
B) 2022 May 10  07:00 C) 2022 May 30  18:00
D) 10 11 16 20 23 25 30 0700-1800
E) CONTROLE D'AERODROME NON ASSURE
LFFA-E1856/22 
Q) LFFF/QFULT/IV/NBO/ A/000/999/4849N00237E005
A) LFPL  LOGNES EMERAINVILLE
B) 2022 May 19  07:47 C) 2022 May 21  10:00
E) POMPE NR2 AVGAS 100LL HORS SERVICE.
  © SIA.